sensor_id;sensor_type;location;lat;lon;timestamp;P1;durP1;ratioP1;P2;durP2;ratioP2
72437;SDS011;60444;43.534;-5.674;2022-08-04T00:02:03;17.33;;;8.73;;
72437;SDS011;60444;43.534;-5.674;2022-08-04T00:05:00;11.43;;;4.40;;
72437;SDS011;60444;43.534;-5.674;2022-08-04T00:07:34;7.68;;;2.78;;
72437;SDS011;60444;43.534;-5.674;2022-08-04T00:10:09;8.35;;;2.60;;
72437;SDS011;60444;43.534;-5.674;2022-08-04T00:12:36;6.33;;;2.27;;
72437;SDS011;60444;43.534;-5.674;2022-08-04T00:15:06;6.32;;;2.22;;
72437;SDS011;60444;43.534;-5.674;2022-08-04T00:17:39;7.32;;;2.55;;
72437;SDS011;60444;43.534;-5.674;2022-08-04T00:20:22;7.30;;;2.33;;
72437;SDS011;60444;43.534;-5.674;2022-08-04T00:22:53;6.55;;;2.80;;
72437;SDS011;60444;43.534;-5.674;2022-08-04T00:25:18;6.97;;;2.73;;
72437;SDS011;60444;43.534;-5.674;2022-08-04T00:27:44;10.50;;;3.58;;
72437;SDS011;60444;43.534;-5.674;2022-08-04T00:30:14;8.48;;;3.60;;
72437;SDS011;60444;43.534;-5.674;2022-08-04T00:32:40;8.67;;;3.63;;
72437;SDS011;60444;43.534;-5.674;2022-08-04T00:35:07;11.32;;;2.85;;
72437;SDS011;60444;43.534;-5.674;2022-08-04T00:37:37;8.13;;;2.30;;
72437;SDS011;60444;43.534;-5.674;2022-08-04T00:40:07;7.18;;;2.40;;
72437;SDS011;60444;43.534;-5.674;2022-08-04T00:43:07;8.90;;;2.90;;
72437;SDS011;60444;43.534;-5.674;2022-08-04T00:59:17;8.87;;;2.17;;
72437;SDS011;60444;43.534;-5.674;2022-08-04T01:07:30;9.18;;;2.17;;
72437;SDS011;60444;43.534;-5.674;2022-08-04T01:10:16;6.85;;;2.40;;
72437;SDS011;60444;43.534;-5.674;2022-08-04T01:16:05;7.68;;;2.30;;
72437;SDS011;60444;43.534;-5.674;2022-08-04T01:18:08;8.80;;;2.30;;
72437;SDS011;60444;43.534;-5.674;2022-08-04T01:21:00;8.35;;;2.90;;
72437;SDS011;60444;43.534;-5.674;2022-08-04T01:26:54;7.53;;;2.23;;
72437;SDS011;60444;43.534;-5.674;2022-08-04T01:29:27;8.63;;;2.50;;
72437;SDS011;60444;43.534;-5.674;2022-08-04T01:32:11;7.22;;;1.90;;
72437;SDS011;60444;43.534;-5.674;2022-08-04T01:34:50;7.25;;;1.70;;
72437;SDS011;60444;43.534;-5.674;2022-08-04T01:37:26;7.80;;;2.30;;
72437;SDS011;60444;43.534;-5.674;2022-08-04T01:40:05;6.37;;;1.77;;
72437;SDS011;60444;43.534;-5.674;2022-08-04T01:42:33;9.48;;;2.10;;
72437;SDS011;60444;43.534;-5.674;2022-08-04T01:45:04;9.38;;;2.30;;
72437;SDS011;60444;43.534;-5.674;2022-08-04T01:47:33;8.52;;;2.28;;
72437;SDS011;60444;43.534;-5.674;2022-08-04T01:50:03;8.68;;;2.00;;
72437;SDS011;60444;43.534;-5.674;2022-08-04T01:52:38;9.20;;;1.83;;
72437;SDS011;60444;43.534;-5.674;2022-08-04T01:55:07;7.13;;;1.98;;
72437;SDS011;60444;43.534;-5.674;2022-08-04T01:57:41;6.72;;;2.00;;
72437;SDS011;60444;43.534;-5.674;2022-08-04T02:00:09;8.13;;;2.40;;
72437;SDS011;60444;43.534;-5.674;2022-08-04T02:02:36;9.02;;;2.10;;
72437;SDS011;60444;43.534;-5.674;2022-08-04T02:05:07;8.63;;;2.00;;
72437;SDS011;60444;43.534;-5.674;2022-08-04T02:13:20;10.63;;;2.33;;
72437;SDS011;60444;43.534;-5.674;2022-08-04T02:18:30;8.35;;;2.35;;
72437;SDS011;60444;43.534;-5.674;2022-08-04T02:21:03;8.43;;;1.77;;
72437;SDS011;60444;43.534;-5.674;2022-08-04T02:23:39;7.50;;;1.90;;
72437;SDS011;60444;43.534;-5.674;2022-08-04T02:26:10;8.82;;;2.20;;
72437;SDS011;60444;43.534;-5.674;2022-08-04T02:28:47;8.85;;;1.92;;
72437;SDS011;60444;43.534;-5.674;2022-08-04T02:36:40;6.57;;;1.88;;
72437;SDS011;60444;43.534;-5.674;2022-08-04T02:39:07;7.22;;;2.35;;
72437;SDS011;60444;43.534;-5.674;2022-08-04T02:41:35;6.85;;;1.70;;
72437;SDS011;60444;43.534;-5.674;2022-08-04T02:44:03;6.05;;;1.70;;
72437;SDS011;60444;43.534;-5.674;2022-08-04T02:46:30;6.53;;;2.10;;
72437;SDS011;60444;43.534;-5.674;2022-08-04T02:48:57;9.40;;;2.10;;
72437;SDS011;60444;43.534;-5.674;2022-08-04T02:51:33;7.20;;;2.10;;
72437;SDS011;60444;43.534;-5.674;2022-08-04T02:54:09;7.30;;;1.90;;
72437;SDS011;60444;43.534;-5.674;2022-08-04T02:56:36;9.07;;;2.38;;
72437;SDS011;60444;43.534;-5.674;2022-08-04T03:01:31;6.95;;;2.08;;
72437;SDS011;60444;43.534;-5.674;2022-08-04T03:04:01;7.55;;;2.33;;
72437;SDS011;60444;43.534;-5.674;2022-08-04T03:21:32;7.72;;;2.33;;
72437;SDS011;60444;43.534;-5.674;2022-08-04T03:27:10;7.03;;;1.70;;
72437;SDS011;60444;43.534;-5.674;2022-08-04T03:30:04;7.35;;;2.10;;
72437;SDS011;60444;43.534;-5.674;2022-08-04T03:38:16;8.13;;;1.83;;
72437;SDS011;60444;43.534;-5.674;2022-08-04T03:44:13;6.25;;;2.00;;
72437;SDS011;60444;43.534;-5.674;2022-08-04T03:46:42;6.03;;;2.00;;
72437;SDS011;60444;43.534;-5.674;2022-08-04T03:49:23;6.57;;;2.00;;
72437;SDS011;60444;43.534;-5.674;2022-08-04T03:51:57;7.85;;;2.40;;
72437;SDS011;60444;43.534;-5.674;2022-08-04T04:00:30;7.38;;;1.80;;
72437;SDS011;60444;43.534;-5.674;2022-08-04T04:03:12;9.38;;;2.10;;
72437;SDS011;60444;43.534;-5.674;2022-08-04T04:23:42;8.57;;;1.80;;
72437;SDS011;60444;43.534;-5.674;2022-08-04T04:29:35;7.53;;;2.28;;
72437;SDS011;60444;43.534;-5.674;2022-08-04T04:32:12;10.18;;;2.15;;
72437;SDS011;60444;43.534;-5.674;2022-08-04T04:35:03;7.75;;;1.50;;
72437;SDS011;60444;43.534;-5.674;2022-08-04T04:50:31;7.03;;;1.98;;
72437;SDS011;60444;43.534;-5.674;2022-08-04T04:53:02;6.53;;;2.10;;
72437;SDS011;60444;43.534;-5.674;2022-08-04T04:55:46;7.40;;;2.20;;
72437;SDS011;60444;43.534;-5.674;2022-08-04T04:58:17;6.32;;;2.00;;
72437;SDS011;60444;43.534;-5.674;2022-08-04T05:00:48;5.65;;;1.85;;
72437;SDS011;60444;43.534;-5.674;2022-08-04T05:03:38;7.68;;;2.17;;
72437;SDS011;60444;43.534;-5.674;2022-08-04T05:06:35;8.50;;;2.10;;
72437;SDS011;60444;43.534;-5.674;2022-08-04T05:12:05;7.40;;;1.92;;
72437;SDS011;60444;43.534;-5.674;2022-08-04T05:15:03;6.38;;;1.73;;
72437;SDS011;60444;43.534;-5.674;2022-08-04T05:17:41;7.55;;;2.10;;
72437;SDS011;60444;43.534;-5.674;2022-08-04T05:20:16;7.50;;;1.40;;
72437;SDS011;60444;43.534;-5.674;2022-08-04T05:22:47;7.40;;;1.42;;
72437;SDS011;60444;43.534;-5.674;2022-08-04T05:25:20;7.25;;;1.80;;
72437;SDS011;60444;43.534;-5.674;2022-08-04T05:27:49;6.00;;;1.98;;
72437;SDS011;60444;43.534;-5.674;2022-08-04T05:30:20;5.85;;;1.98;;
72437;SDS011;60444;43.534;-5.674;2022-08-04T05:32:55;7.50;;;1.93;;
72437;SDS011;60444;43.534;-5.674;2022-08-04T05:35:50;5.65;;;1.55;;
72437;SDS011;60444;43.534;-5.674;2022-08-04T05:38:17;8.43;;;1.90;;
72437;SDS011;60444;43.534;-5.674;2022-08-04T05:40:46;9.70;;;2.00;;
72437;SDS011;60444;43.534;-5.674;2022-08-04T05:43:13;8.23;;;1.92;;
72437;SDS011;60444;43.534;-5.674;2022-08-04T05:45:40;10.73;;;1.90;;
72437;SDS011;60444;43.534;-5.674;2022-08-04T05:48:07;6.95;;;1.38;;
72437;SDS011;60444;43.534;-5.674;2022-08-04T05:50:34;7.43;;;1.80;;
72437;SDS011;60444;43.534;-5.674;2022-08-04T05:53:01;8.52;;;1.70;;
72437;SDS011;60444;43.534;-5.674;2022-08-04T05:55:28;6.20;;;1.80;;
72437;SDS011;60444;43.534;-5.674;2022-08-04T05:57:55;8.03;;;1.90;;
72437;SDS011;60444;43.534;-5.674;2022-08-04T06:00:23;6.22;;;1.42;;
72437;SDS011;60444;43.534;-5.674;2022-08-04T06:02:51;6.63;;;1.63;;
72437;SDS011;60444;43.534;-5.674;2022-08-04T06:05:18;8.63;;;1.90;;
72437;SDS011;60444;43.534;-5.674;2022-08-04T06:07:44;6.95;;;1.85;;
72437;SDS011;60444;43.534;-5.674;2022-08-04T06:10:11;6.43;;;1.77;;
72437;SDS011;60444;43.534;-5.674;2022-08-04T06:12:43;6.68;;;1.92;;
72437;SDS011;60444;43.534;-5.674;2022-08-04T06:15:15;6.43;;;1.63;;
72437;SDS011;60444;43.534;-5.674;2022-08-04T06:17:56;6.55;;;1.58;;
72437;SDS011;60444;43.534;-5.674;2022-08-04T06:20:26;7.10;;;2.08;;
72437;SDS011;60444;43.534;-5.674;2022-08-04T06:22:56;6.90;;;1.67;;
72437;SDS011;60444;43.534;-5.674;2022-08-04T06:25:27;7.85;;;1.38;;
72437;SDS011;60444;43.534;-5.674;2022-08-04T06:27:56;5.65;;;2.00;;
72437;SDS011;60444;43.534;-5.674;2022-08-04T06:30:24;8.27;;;1.88;;
72437;SDS011;60444;43.534;-5.674;2022-08-04T06:32:52;7.72;;;1.75;;
72437;SDS011;60444;43.534;-5.674;2022-08-04T06:35:21;8.73;;;2.00;;
72437;SDS011;60444;43.534;-5.674;2022-08-04T06:37:49;6.97;;;1.30;;
72437;SDS011;60444;43.534;-5.674;2022-08-04T06:40:17;4.70;;;1.40;;
72437;SDS011;60444;43.534;-5.674;2022-08-04T06:42:44;7.78;;;1.20;;
72437;SDS011;60444;43.534;-5.674;2022-08-04T06:45:12;8.05;;;1.63;;
72437;SDS011;60444;43.534;-5.674;2022-08-04T06:47:39;8.57;;;1.57;;
72437;SDS011;60444;43.534;-5.674;2022-08-04T06:50:09;9.07;;;1.88;;
72437;SDS011;60444;43.534;-5.674;2022-08-04T06:52:38;7.30;;;1.52;;
72437;SDS011;60444;43.534;-5.674;2022-08-04T06:55:04;9.70;;;1.83;;
72437;SDS011;60444;43.534;-5.674;2022-08-04T06:57:31;8.82;;;1.65;;
72437;SDS011;60444;43.534;-5.674;2022-08-04T07:00:00;7.43;;;1.73;;
72437;SDS011;60444;43.534;-5.674;2022-08-04T07:02:38;7.30;;;1.58;;
72437;SDS011;60444;43.534;-5.674;2022-08-04T07:05:08;28.60;;;6.88;;
72437;SDS011;60444;43.534;-5.674;2022-08-04T07:07:35;8.90;;;1.75;;
72437;SDS011;60444;43.534;-5.674;2022-08-04T07:10:01;7.40;;;1.50;;
72437;SDS011;60444;43.534;-5.674;2022-08-04T07:12:28;10.30;;;1.87;;
72437;SDS011;60444;43.534;-5.674;2022-08-04T07:14:56;8.75;;;1.60;;
72437;SDS011;60444;43.534;-5.674;2022-08-04T07:17:22;8.30;;;2.15;;
72437;SDS011;60444;43.534;-5.674;2022-08-04T07:19:50;8.73;;;1.90;;
72437;SDS011;60444;43.534;-5.674;2022-08-04T07:22:17;9.63;;;2.00;;
72437;SDS011;60444;43.534;-5.674;2022-08-04T07:24:43;6.83;;;1.67;;
72437;SDS011;60444;43.534;-5.674;2022-08-04T07:27:09;7.60;;;2.38;;
72437;SDS011;60444;43.534;-5.674;2022-08-04T07:29:35;6.00;;;1.70;;
72437;SDS011;60444;43.534;-5.674;2022-08-04T07:32:01;7.30;;;1.73;;
72437;SDS011;60444;43.534;-5.674;2022-08-04T07:34:28;8.40;;;1.75;;
72437;SDS011;60444;43.534;-5.674;2022-08-04T07:36:55;6.28;;;1.90;;
72437;SDS011;60444;43.534;-5.674;2022-08-04T07:39:23;8.73;;;2.25;;
72437;SDS011;60444;43.534;-5.674;2022-08-04T07:41:52;8.70;;;1.73;;
72437;SDS011;60444;43.534;-5.674;2022-08-04T07:44:19;9.73;;;2.10;;
72437;SDS011;60444;43.534;-5.674;2022-08-04T07:46:45;7.35;;;1.42;;
72437;SDS011;60444;43.534;-5.674;2022-08-04T07:49:11;10.53;;;2.30;;
72437;SDS011;60444;43.534;-5.674;2022-08-04T07:51:37;9.57;;;2.08;;
72437;SDS011;60444;43.534;-5.674;2022-08-04T07:54:03;9.95;;;1.52;;
72437;SDS011;60444;43.534;-5.674;2022-08-04T07:56:32;8.70;;;1.60;;
72437;SDS011;60444;43.534;-5.674;2022-08-04T07:59:00;9.17;;;1.73;;
72437;SDS011;60444;43.534;-5.674;2022-08-04T08:01:27;7.75;;;1.58;;
72437;SDS011;60444;43.534;-5.674;2022-08-04T08:03:54;8.15;;;1.50;;
72437;SDS011;60444;43.534;-5.674;2022-08-04T08:06:21;8.52;;;1.42;;
72437;SDS011;60444;43.534;-5.674;2022-08-04T08:08:47;9.27;;;1.40;;
72437;SDS011;60444;43.534;-5.674;2022-08-04T08:11:13;10.40;;;1.40;;
72437;SDS011;60444;43.534;-5.674;2022-08-04T08:13:41;8.05;;;2.15;;
72437;SDS011;60444;43.534;-5.674;2022-08-04T08:16:08;8.30;;;1.70;;
72437;SDS011;60444;43.534;-5.674;2022-08-04T08:18:34;8.37;;;1.40;;
72437;SDS011;60444;43.534;-5.674;2022-08-04T08:20:59;9.50;;;1.70;;
72437;SDS011;60444;43.534;-5.674;2022-08-04T08:23:25;7.10;;;1.30;;
72437;SDS011;60444;43.534;-5.674;2022-08-04T08:25:55;5.85;;;1.77;;
72437;SDS011;60444;43.534;-5.674;2022-08-04T08:28:21;6.70;;;1.70;;
72437;SDS011;60444;43.534;-5.674;2022-08-04T08:30:47;5.95;;;1.23;;
72437;SDS011;60444;43.534;-5.674;2022-08-04T08:33:13;8.88;;;1.50;;
72437;SDS011;60444;43.534;-5.674;2022-08-04T08:38:12;9.30;;;1.35;;
72437;SDS011;60444;43.534;-5.674;2022-08-04T08:43:18;7.72;;;1.60;;
72437;SDS011;60444;43.534;-5.674;2022-08-04T08:51:48;7.72;;;1.30;;
72437;SDS011;60444;43.534;-5.674;2022-08-04T09:02:51;5.87;;;1.27;;
72437;SDS011;60444;43.534;-5.674;2022-08-04T09:08:28;6.18;;;1.67;;
72437;SDS011;60444;43.534;-5.674;2022-08-04T09:11:05;10.57;;;2.10;;
72437;SDS011;60444;43.534;-5.674;2022-08-04T09:13:51;6.63;;;1.70;;
72437;SDS011;60444;43.534;-5.674;2022-08-04T09:16:38;6.30;;;1.37;;
72437;SDS011;60444;43.534;-5.674;2022-08-04T09:19:11;6.13;;;1.40;;
72437;SDS011;60444;43.534;-5.674;2022-08-04T09:24:52;8.25;;;1.70;;
72437;SDS011;60444;43.534;-5.674;2022-08-04T09:27:39;7.07;;;1.92;;
72437;SDS011;60444;43.534;-5.674;2022-08-04T09:30:17;9.57;;;1.50;;
72437;SDS011;60444;43.534;-5.674;2022-08-04T09:46:47;8.35;;;1.70;;
72437;SDS011;60444;43.534;-5.674;2022-08-04T09:49:45;7.57;;;1.80;;
72437;SDS011;60444;43.534;-5.674;2022-08-04T10:01:02;9.93;;;1.92;;
72437;SDS011;60444;43.534;-5.674;2022-08-04T10:03:34;7.88;;;1.70;;
72437;SDS011;60444;43.534;-5.674;2022-08-04T10:26:19;9.10;;;1.80;;
72437;SDS011;60444;43.534;-5.674;2022-08-04T10:28:50;8.73;;;1.30;;
72437;SDS011;60444;43.534;-5.674;2022-08-04T10:31:23;7.03;;;1.10;;
72437;SDS011;60444;43.534;-5.674;2022-08-04T10:34:13;6.53;;;1.00;;
72437;SDS011;60444;43.534;-5.674;2022-08-04T10:37:05;6.45;;;1.30;;
72437;SDS011;60444;43.534;-5.674;2022-08-04T10:42:57;7.18;;;1.67;;
72437;SDS011;60444;43.534;-5.674;2022-08-04T10:45:46;8.98;;;1.70;;
72437;SDS011;60444;43.534;-5.674;2022-08-04T10:53:57;5.90;;;1.50;;
72437;SDS011;60444;43.534;-5.674;2022-08-04T10:59:17;7.68;;;1.60;;
72437;SDS011;60444;43.534;-5.674;2022-08-04T11:01:51;8.52;;;1.80;;
72437;SDS011;60444;43.534;-5.674;2022-08-04T11:04:41;9.02;;;1.90;;
72437;SDS011;60444;43.534;-5.674;2022-08-04T11:07:11;7.97;;;2.47;;
72437;SDS011;60444;43.534;-5.674;2022-08-04T11:09:40;4.93;;;1.42;;
72437;SDS011;60444;43.534;-5.674;2022-08-04T11:12:24;6.00;;;1.42;;
72437;SDS011;60444;43.534;-5.674;2022-08-04T11:14:56;5.60;;;1.20;;
72437;SDS011;60444;43.534;-5.674;2022-08-04T11:17:27;9.98;;;1.70;;
72437;SDS011;60444;43.534;-5.674;2022-08-04T11:22:33;6.00;;;1.65;;
72437;SDS011;60444;43.534;-5.674;2022-08-04T11:25:19;6.57;;;1.13;;
72437;SDS011;60444;43.534;-5.674;2022-08-04T11:30:50;5.30;;;0.93;;
72437;SDS011;60444;43.534;-5.674;2022-08-04T11:33:34;7.47;;;1.00;;
72437;SDS011;60444;43.534;-5.674;2022-08-04T11:38:52;7.80;;;1.70;;
72437;SDS011;60444;43.534;-5.674;2022-08-04T11:44:22;6.38;;;1.33;;
72437;SDS011;60444;43.534;-5.674;2022-08-04T11:46:56;8.47;;;1.30;;
72437;SDS011;60444;43.534;-5.674;2022-08-04T11:49:32;7.55;;;1.15;;
72437;SDS011;60444;43.534;-5.674;2022-08-04T11:52:00;6.28;;;0.98;;
72437;SDS011;60444;43.534;-5.674;2022-08-04T11:54:29;7.55;;;1.30;;
72437;SDS011;60444;43.534;-5.674;2022-08-04T11:56:58;6.20;;;1.20;;
72437;SDS011;60444;43.534;-5.674;2022-08-04T11:59:23;6.17;;;1.23;;
72437;SDS011;60444;43.534;-5.674;2022-08-04T12:04:49;4.93;;;1.08;;
72437;SDS011;60444;43.534;-5.674;2022-08-04T12:16:49;4.88;;;0.90;;
72437;SDS011;60444;43.534;-5.674;2022-08-04T12:19:23;6.53;;;1.20;;
72437;SDS011;60444;43.534;-5.674;2022-08-04T12:21:52;4.67;;;0.87;;
72437;SDS011;60444;43.534;-5.674;2022-08-04T12:24:20;6.40;;;1.13;;
72437;SDS011;60444;43.534;-5.674;2022-08-04T12:26:55;5.68;;;1.33;;
72437;SDS011;60444;43.534;-5.674;2022-08-04T12:29:24;8.07;;;1.75;;
72437;SDS011;60444;43.534;-5.674;2022-08-04T12:31:57;7.50;;;1.50;;
72437;SDS011;60444;43.534;-5.674;2022-08-04T12:34:33;6.90;;;1.67;;
72437;SDS011;60444;43.534;-5.674;2022-08-04T12:39:50;6.35;;;1.08;;
72437;SDS011;60444;43.534;-5.674;2022-08-04T12:42:28;6.28;;;1.30;;
72437;SDS011;60444;43.534;-5.674;2022-08-04T12:45:07;4.93;;;1.17;;
72437;SDS011;60444;43.534;-5.674;2022-08-04T12:47:35;7.73;;;1.17;;
72437;SDS011;60444;43.534;-5.674;2022-08-04T12:50:04;6.03;;;1.20;;
72437;SDS011;60444;43.534;-5.674;2022-08-04T12:52:33;5.57;;;1.50;;
72437;SDS011;60444;43.534;-5.674;2022-08-04T12:55:06;6.00;;;0.93;;
72437;SDS011;60444;43.534;-5.674;2022-08-04T12:57:33;7.95;;;1.10;;
72437;SDS011;60444;43.534;-5.674;2022-08-04T12:59:59;8.47;;;1.30;;
72437;SDS011;60444;43.534;-5.674;2022-08-04T13:02:30;7.63;;;1.60;;
72437;SDS011;60444;43.534;-5.674;2022-08-04T13:05:02;7.20;;;1.30;;
72437;SDS011;60444;43.534;-5.674;2022-08-04T13:07:37;6.87;;;1.47;;
72437;SDS011;60444;43.534;-5.674;2022-08-04T13:10:14;4.82;;;1.45;;
72437;SDS011;60444;43.534;-5.674;2022-08-04T13:12:41;5.00;;;1.17;;
72437;SDS011;60444;43.534;-5.674;2022-08-04T13:15:16;5.65;;;0.80;;
72437;SDS011;60444;43.534;-5.674;2022-08-04T13:18:04;5.13;;;1.23;;
72437;SDS011;60444;43.534;-5.674;2022-08-04T13:20:35;7.30;;;1.30;;
72437;SDS011;60444;43.534;-5.674;2022-08-04T13:25:33;6.93;;;1.13;;
72437;SDS011;60444;43.534;-5.674;2022-08-04T13:28:04;4.15;;;1.05;;
72437;SDS011;60444;43.534;-5.674;2022-08-04T13:30:32;4.45;;;1.13;;
72437;SDS011;60444;43.534;-5.674;2022-08-04T13:33:02;5.00;;;1.00;;
72437;SDS011;60444;43.534;-5.674;2022-08-04T13:35:30;6.15;;;1.50;;
72437;SDS011;60444;43.534;-5.674;2022-08-04T13:37:58;8.40;;;1.52;;
72437;SDS011;60444;43.534;-5.674;2022-08-04T13:40:25;5.78;;;0.75;;
72437;SDS011;60444;43.534;-5.674;2022-08-04T13:42:53;5.97;;;1.17;;
72437;SDS011;60444;43.534;-5.674;2022-08-04T13:45:21;4.97;;;0.90;;
72437;SDS011;60444;43.534;-5.674;2022-08-04T13:47:48;8.00;;;1.00;;
72437;SDS011;60444;43.534;-5.674;2022-08-04T13:50:20;7.45;;;1.40;;
72437;SDS011;60444;43.534;-5.674;2022-08-04T13:52:52;9.95;;;1.45;;
72437;SDS011;60444;43.534;-5.674;2022-08-04T13:55:23;5.63;;;1.13;;
72437;SDS011;60444;43.534;-5.674;2022-08-04T13:57:50;5.20;;;1.00;;
72437;SDS011;60444;43.534;-5.674;2022-08-04T14:00:20;5.95;;;1.00;;
72437;SDS011;60444;43.534;-5.674;2022-08-04T14:02:51;7.28;;;1.20;;
72437;SDS011;60444;43.534;-5.674;2022-08-04T14:05:27;4.97;;;0.90;;
72437;SDS011;60444;43.534;-5.674;2022-08-04T14:08:17;6.90;;;1.40;;
72437;SDS011;60444;43.534;-5.674;2022-08-04T14:10:55;5.22;;;1.10;;
72437;SDS011;60444;43.534;-5.674;2022-08-04T14:13:31;4.22;;;1.00;;
72437;SDS011;60444;43.534;-5.674;2022-08-04T14:15:58;6.68;;;1.08;;
72437;SDS011;60444;43.534;-5.674;2022-08-04T14:18:25;5.43;;;1.07;;
72437;SDS011;60444;43.534;-5.674;2022-08-04T14:21:00;5.70;;;1.55;;
72437;SDS011;60444;43.534;-5.674;2022-08-04T14:23:26;6.75;;;1.35;;
72437;SDS011;60444;43.534;-5.674;2022-08-04T14:25:53;5.20;;;1.02;;
72437;SDS011;60444;43.534;-5.674;2022-08-04T14:28:29;5.47;;;1.00;;
72437;SDS011;60444;43.534;-5.674;2022-08-04T14:31:13;4.22;;;0.75;;
72437;SDS011;60444;43.534;-5.674;2022-08-04T14:33:41;4.47;;;1.00;;
72437;SDS011;60444;43.534;-5.674;2022-08-04T14:36:08;4.07;;;0.70;;
72437;SDS011;60444;43.534;-5.674;2022-08-04T14:41:22;4.83;;;0.90;;
72437;SDS011;60444;43.534;-5.674;2022-08-04T14:43:49;5.35;;;0.80;;
72437;SDS011;60444;43.534;-5.674;2022-08-04T14:46:23;4.95;;;0.98;;
72437;SDS011;60444;43.534;-5.674;2022-08-04T14:49:03;5.50;;;0.90;;
72437;SDS011;60444;43.534;-5.674;2022-08-04T14:51:37;3.60;;;0.90;;
72437;SDS011;60444;43.534;-5.674;2022-08-04T14:54:07;4.37;;;0.70;;
72437;SDS011;60444;43.534;-5.674;2022-08-04T14:56:34;6.65;;;1.00;;
72437;SDS011;60444;43.534;-5.674;2022-08-04T14:59:03;5.05;;;1.05;;
72437;SDS011;60444;43.534;-5.674;2022-08-04T15:01:33;6.15;;;1.55;;
72437;SDS011;60444;43.534;-5.674;2022-08-04T15:04:00;3.90;;;1.10;;
72437;SDS011;60444;43.534;-5.674;2022-08-04T15:06:27;7.80;;;1.43;;
72437;SDS011;60444;43.534;-5.674;2022-08-04T15:08:58;8.52;;;1.95;;
72437;SDS011;60444;43.534;-5.674;2022-08-04T15:11:31;8.52;;;1.80;;
72437;SDS011;60444;43.534;-5.674;2022-08-04T15:13:58;7.15;;;1.65;;
72437;SDS011;60444;43.534;-5.674;2022-08-04T15:16:26;7.50;;;1.83;;
72437;SDS011;60444;43.534;-5.674;2022-08-04T15:18:53;6.82;;;1.60;;
72437;SDS011;60444;43.534;-5.674;2022-08-04T15:21:19;5.82;;;1.40;;
72437;SDS011;60444;43.534;-5.674;2022-08-04T15:23:46;9.00;;;1.60;;
72437;SDS011;60444;43.534;-5.674;2022-08-04T15:26:18;6.67;;;1.80;;
72437;SDS011;60444;43.534;-5.674;2022-08-04T15:28:50;6.68;;;1.52;;
72437;SDS011;60444;43.534;-5.674;2022-08-04T15:31:24;8.52;;;1.77;;
72437;SDS011;60444;43.534;-5.674;2022-08-04T15:33:51;9.65;;;2.08;;
72437;SDS011;60444;43.534;-5.674;2022-08-04T15:36:20;7.95;;;1.60;;
72437;SDS011;60444;43.534;-5.674;2022-08-04T15:49:17;8.47;;;1.80;;
72437;SDS011;60444;43.534;-5.674;2022-08-04T15:51:44;6.88;;;1.90;;
72437;SDS011;60444;43.534;-5.674;2022-08-04T15:59:12;9.87;;;1.97;;
72437;SDS011;60444;43.534;-5.674;2022-08-04T16:01:38;7.60;;;1.67;;
72437;SDS011;60444;43.534;-5.674;2022-08-04T16:04:22;9.20;;;2.33;;
72437;SDS011;60444;43.534;-5.674;2022-08-04T16:06:49;8.10;;;1.70;;
72437;SDS011;60444;43.534;-5.674;2022-08-04T16:09:23;7.22;;;2.00;;
72437;SDS011;60444;43.534;-5.674;2022-08-04T16:11:50;9.18;;;2.53;;
72437;SDS011;60444;43.534;-5.674;2022-08-04T16:14:16;10.25;;;2.42;;
72437;SDS011;60444;43.534;-5.674;2022-08-04T16:16:55;10.48;;;2.35;;
72437;SDS011;60444;43.534;-5.674;2022-08-04T16:19:43;7.57;;;2.33;;
72437;SDS011;60444;43.534;-5.674;2022-08-04T16:22:35;11.57;;;3.15;;
72437;SDS011;60444;43.534;-5.674;2022-08-04T16:25:02;11.95;;;2.80;;
72437;SDS011;60444;43.534;-5.674;2022-08-04T16:27:39;11.30;;;2.53;;
72437;SDS011;60444;43.534;-5.674;2022-08-04T16:30:07;9.50;;;2.30;;
72437;SDS011;60444;43.534;-5.674;2022-08-04T16:32:40;9.20;;;2.45;;
72437;SDS011;60444;43.534;-5.674;2022-08-04T16:35:24;9.73;;;2.42;;
72437;SDS011;60444;43.534;-5.674;2022-08-04T16:37:52;11.65;;;2.97;;
72437;SDS011;60444;43.534;-5.674;2022-08-04T16:40:52;7.90;;;2.43;;
72437;SDS011;60444;43.534;-5.674;2022-08-04T16:43:20;9.63;;;2.17;;
72437;SDS011;60444;43.534;-5.674;2022-08-04T16:53:40;9.43;;;2.60;;
72437;SDS011;60444;43.534;-5.674;2022-08-04T16:56:11;8.98;;;2.53;;
72437;SDS011;60444;43.534;-5.674;2022-08-04T16:58:44;10.73;;;2.60;;
72437;SDS011;60444;43.534;-5.674;2022-08-04T17:01:14;10.38;;;2.42;;
72437;SDS011;60444;43.534;-5.674;2022-08-04T17:03:48;10.60;;;2.13;;
72437;SDS011;60444;43.534;-5.674;2022-08-04T17:06:15;9.37;;;2.57;;
72437;SDS011;60444;43.534;-5.674;2022-08-04T17:08:44;11.18;;;2.60;;
72437;SDS011;60444;43.534;-5.674;2022-08-04T17:11:13;10.30;;;2.65;;
72437;SDS011;60444;43.534;-5.674;2022-08-04T17:13:41;11.63;;;3.00;;
72437;SDS011;60444;43.534;-5.674;2022-08-04T17:16:10;7.60;;;2.40;;
72437;SDS011;60444;43.534;-5.674;2022-08-04T17:18:44;9.13;;;2.30;;
72437;SDS011;60444;43.534;-5.674;2022-08-04T17:21:16;11.20;;;2.30;;
72437;SDS011;60444;43.534;-5.674;2022-08-04T17:23:48;9.05;;;2.15;;
72437;SDS011;60444;43.534;-5.674;2022-08-04T17:26:18;12.30;;;2.80;;
72437;SDS011;60444;43.534;-5.674;2022-08-04T17:29:03;10.43;;;2.92;;
72437;SDS011;60444;43.534;-5.674;2022-08-04T17:31:30;9.40;;;2.80;;
72437;SDS011;60444;43.534;-5.674;2022-08-04T17:33:58;12.65;;;3.05;;
72437;SDS011;60444;43.534;-5.674;2022-08-04T17:36:36;10.13;;;2.45;;
72437;SDS011;60444;43.534;-5.674;2022-08-04T17:39:10;9.73;;;2.45;;
72437;SDS011;60444;43.534;-5.674;2022-08-04T17:41:38;12.85;;;2.75;;
72437;SDS011;60444;43.534;-5.674;2022-08-04T17:44:04;14.47;;;3.10;;
72437;SDS011;60444;43.534;-5.674;2022-08-04T17:51:52;11.07;;;2.57;;
72437;SDS011;60444;43.534;-5.674;2022-08-04T17:54:29;10.60;;;2.20;;
72437;SDS011;60444;43.534;-5.674;2022-08-04T17:57:01;11.18;;;2.40;;
72437;SDS011;60444;43.534;-5.674;2022-08-04T17:59:41;11.20;;;2.70;;
72437;SDS011;60444;43.534;-5.674;2022-08-04T18:02:08;10.63;;;2.40;;
72437;SDS011;60444;43.534;-5.674;2022-08-04T18:07:06;14.43;;;2.45;;
72437;SDS011;60444;43.534;-5.674;2022-08-04T18:12:29;12.38;;;2.47;;
72437;SDS011;60444;43.534;-5.674;2022-08-04T18:14:58;9.53;;;2.23;;
72437;SDS011;60444;43.534;-5.674;2022-08-04T18:17:36;9.45;;;1.90;;
72437;SDS011;60444;43.534;-5.674;2022-08-04T18:20:07;12.35;;;2.70;;
72437;SDS011;60444;43.534;-5.674;2022-08-04T18:22:38;7.97;;;2.42;;
72437;SDS011;60444;43.534;-5.674;2022-08-04T18:25:06;10.02;;;3.17;;
72437;SDS011;60444;43.534;-5.674;2022-08-04T18:27:33;14.90;;;2.77;;
72437;SDS011;60444;43.534;-5.674;2022-08-04T18:29:58;8.57;;;2.35;;
72437;SDS011;60444;43.534;-5.674;2022-08-04T18:32:24;10.40;;;2.67;;
72437;SDS011;60444;43.534;-5.674;2022-08-04T18:34:50;9.63;;;2.33;;
72437;SDS011;60444;43.534;-5.674;2022-08-04T18:37:18;13.00;;;2.97;;
72437;SDS011;60444;43.534;-5.674;2022-08-04T18:39:43;11.20;;;2.28;;
72437;SDS011;60444;43.534;-5.674;2022-08-04T18:42:09;10.87;;;2.97;;
72437;SDS011;60444;43.534;-5.674;2022-08-04T18:44:35;11.93;;;2.85;;
72437;SDS011;60444;43.534;-5.674;2022-08-04T18:47:02;11.05;;;2.80;;
72437;SDS011;60444;43.534;-5.674;2022-08-04T18:49:28;12.30;;;2.53;;
72437;SDS011;60444;43.534;-5.674;2022-08-04T18:51:55;10.80;;;2.75;;
72437;SDS011;60444;43.534;-5.674;2022-08-04T18:54:22;10.07;;;2.80;;
72437;SDS011;60444;43.534;-5.674;2022-08-04T18:56:52;9.85;;;2.80;;
72437;SDS011;60444;43.534;-5.674;2022-08-04T18:59:19;14.63;;;2.80;;
72437;SDS011;60444;43.534;-5.674;2022-08-04T19:01:45;9.73;;;2.60;;
72437;SDS011;60444;43.534;-5.674;2022-08-04T19:04:10;11.97;;;3.13;;
72437;SDS011;60444;43.534;-5.674;2022-08-04T19:06:37;10.48;;;2.65;;
72437;SDS011;60444;43.534;-5.674;2022-08-04T19:09:03;11.97;;;2.77;;
72437;SDS011;60444;43.534;-5.674;2022-08-04T19:11:30;10.33;;;2.60;;
72437;SDS011;60444;43.534;-5.674;2022-08-04T19:13:57;13.73;;;3.03;;
72437;SDS011;60444;43.534;-5.674;2022-08-04T19:16:23;10.07;;;2.70;;
72437;SDS011;60444;43.534;-5.674;2022-08-04T19:18:52;11.48;;;2.67;;